createdAt,value
2018-08-07T00:00:34.348Z,22.50
2018-08-07T00:03:01.950Z,22.50
2018-08-07T00:05:29.541Z,22.50
2018-08-07T00:07:57.202Z,22.50
2018-08-07T00:10:26.000Z,22.40
2018-08-07T00:12:53.753Z,22.30
2018-08-07T00:15:22.965Z,22.20
2018-08-07T00:17:50.880Z,22.20
2018-08-07T00:20:18.564Z,22.20
2018-08-07T00:22:46.396Z,22.20
2018-08-07T00:27:42.202Z,22.10
2018-08-07T00:30:12.077Z,22.20
2018-08-07T00:32:39.769Z,22.20
2018-08-07T00:35:10.298Z,22.20
2018-08-07T00:37:38.241Z,22.20
2018-08-07T00:40:08.621Z,22.20
2018-08-07T00:42:36.340Z,22.20
2018-08-07T00:45:04.437Z,22.10
2018-08-07T00:47:32.201Z,22.10
2018-08-07T00:49:59.752Z,22.00
2018-08-07T00:52:27.339Z,21.90
2018-08-07T00:54:54.924Z,21.90
2018-08-07T00:57:22.541Z,21.70
2018-08-07T00:59:50.170Z,21.80
2018-08-07T01:02:17.893Z,21.60
2018-08-07T01:04:45.476Z,21.60
2018-08-07T01:07:13.189Z,21.60
2018-08-07T01:09:41.020Z,21.60
2018-08-07T01:12:08.610Z,21.50
2018-08-07T01:14:36.370Z,21.40
2018-08-07T01:19:33.645Z,21.40
2018-08-07T01:22:01.313Z,21.30
2018-08-07T01:24:29.179Z,21.30
2018-08-07T01:26:56.855Z,21.20
2018-08-07T01:29:24.413Z,21.20
2018-08-07T01:31:51.985Z,21.20
2018-08-07T01:34:19.598Z,21.10
2018-08-07T01:36:47.237Z,21.10
2018-08-07T01:39:15.046Z,21.00
2018-08-07T01:41:42.629Z,21.00
2018-08-07T01:44:10.281Z,21.00
2018-08-07T01:46:37.905Z,21.00
2018-08-07T01:49:05.521Z,21.00
2018-08-07T01:51:33.089Z,21.00
2018-08-07T01:54:00.825Z,21.10
2018-08-07T01:56:28.448Z,21.00
2018-08-07T01:58:56.066Z,21.00
2018-08-07T02:01:23.664Z,21.00
2018-08-07T02:03:51.221Z,20.90
2018-08-07T02:06:18.858Z,20.80
2018-08-07T02:08:46.470Z,20.80
2018-08-07T02:11:14.041Z,20.70
2018-08-07T02:13:41.609Z,20.70
2018-08-07T02:16:09.329Z,20.70
2018-08-07T02:18:37.004Z,20.70
2018-08-07T02:21:04.608Z,20.70
2018-08-07T02:23:32.451Z,20.70
2018-08-07T02:26:00.045Z,20.70
2018-08-07T02:28:31.657Z,20.70
2018-08-07T02:31:19.494Z,20.60
2018-08-07T02:33:47.141Z,20.60
2018-08-07T02:36:14.718Z,20.60
2018-08-07T02:38:42.317Z,20.60
2018-08-07T02:41:09.913Z,20.60
2018-08-07T02:43:37.486Z,20.60
2018-08-07T02:46:05.073Z,20.50
2018-08-07T02:48:32.661Z,20.40
2018-08-07T02:51:00.208Z,20.40
2018-08-07T02:53:27.805Z,20.40
2018-08-07T02:55:55.353Z,20.40
2018-08-07T02:58:22.990Z,20.30
2018-08-07T03:00:50.541Z,20.20
2018-08-07T03:03:18.138Z,20.20
2018-08-07T03:05:45.692Z,20.20
2018-08-07T03:08:13.258Z,20.30
2018-08-07T03:10:40.841Z,20.30
2018-08-07T03:13:08.544Z,20.30
2018-08-07T03:15:36.181Z,20.30
2018-08-07T03:18:03.836Z,20.30
2018-08-07T03:20:31.460Z,20.30
2018-08-07T03:22:59.038Z,20.30
2018-08-07T03:25:27.121Z,20.30
2018-08-07T03:27:54.737Z,20.40
2018-08-07T03:30:22.338Z,20.40
2018-08-07T03:32:49.909Z,20.30
2018-08-07T03:35:17.572Z,20.30
2018-08-07T03:37:45.228Z,20.40
2018-08-07T03:40:14.916Z,20.20
2018-08-07T03:42:42.692Z,20.20
2018-08-07T03:45:12.215Z,20.10
2018-08-07T03:47:39.934Z,20.20
2018-08-07T03:50:08.442Z,20.30
2018-08-07T03:52:36.286Z,20.20
2018-08-07T03:55:06.261Z,20.10
2018-08-07T03:57:33.901Z,20.00
2018-08-07T04:00:01.509Z,20.00
2018-08-07T04:02:29.080Z,19.90
2018-08-07T04:04:56.671Z,19.80
2018-08-07T04:07:24.262Z,19.90
2018-08-07T04:09:51.913Z,19.80
2018-08-07T04:12:19.477Z,19.80
2018-08-07T04:14:47.051Z,19.80
2018-08-07T04:17:14.605Z,19.90
2018-08-07T04:19:42.164Z,19.90
2018-08-07T04:22:09.741Z,19.90
2018-08-07T04:24:37.361Z,20.00
2018-08-07T04:27:05.066Z,20.00
2018-08-07T04:29:32.661Z,20.00
2018-08-07T04:32:00.224Z,20.00
2018-08-07T04:34:27.863Z,20.10
2018-08-07T04:36:55.380Z,20.10
2018-08-07T04:39:23.024Z,20.10
2018-08-07T04:41:50.581Z,20.10
2018-08-07T04:44:18.153Z,20.10
2018-08-07T04:46:45.725Z,20.10
2018-08-07T04:49:13.297Z,20.20
2018-08-07T04:51:40.898Z,20.20
2018-08-07T04:54:08.466Z,20.30
2018-08-07T04:56:36.054Z,20.30
2018-08-07T04:59:03.654Z,20.30
2018-08-07T05:01:32.025Z,20.50
2018-08-07T05:03:59.596Z,20.60
2018-08-07T05:06:27.208Z,20.60
2018-08-07T05:08:54.953Z,20.60
2018-08-07T05:11:22.521Z,20.60
2018-08-07T05:13:50.105Z,20.70
2018-08-07T05:16:17.696Z,20.70
2018-08-07T05:18:45.280Z,20.80
2018-08-07T05:21:12.842Z,20.80
2018-08-07T05:23:40.446Z,20.90
2018-08-07T05:26:08.469Z,21.00
2018-08-07T05:28:36.416Z,21.10
2018-08-07T05:31:04.033Z,21.20
2018-08-07T05:33:31.610Z,21.30
2018-08-07T05:35:59.336Z,21.40
2018-08-07T05:38:26.809Z,21.50
2018-08-07T05:40:54.404Z,21.60
2018-08-07T05:43:23.021Z,21.60
2018-08-07T05:45:50.620Z,21.70
2018-08-07T05:48:18.176Z,21.80
2018-08-07T05:50:46.049Z,21.90
2018-08-07T05:53:13.393Z,22.00
2018-08-07T05:55:41.121Z,22.10
2018-08-07T05:58:08.865Z,22.20
2018-08-07T06:00:36.473Z,22.30
2018-08-07T06:03:04.244Z,22.30
2018-08-07T06:05:31.854Z,22.40
2018-08-07T06:07:59.443Z,22.60
2018-08-07T06:10:27.081Z,22.70
2018-08-07T06:12:54.750Z,22.80
2018-08-07T06:15:22.425Z,22.80
2018-08-07T06:17:50.054Z,23.00
2018-08-07T06:20:17.657Z,23.00
2018-08-07T06:25:12.908Z,23.30
2018-08-07T06:27:40.509Z,23.40
2018-08-07T06:30:11.161Z,23.60
2018-08-07T06:32:38.747Z,23.70
2018-08-07T06:35:06.949Z,23.90
2018-08-07T06:37:34.580Z,24.00
2018-08-07T06:40:02.165Z,24.10
2018-08-07T06:42:29.770Z,24.30
2018-08-07T06:44:57.386Z,24.40
2018-08-07T06:47:24.981Z,24.50
2018-08-07T06:49:52.601Z,24.60
2018-08-07T06:52:20.173Z,24.80
2018-08-07T06:54:47.718Z,24.90
2018-08-07T06:57:15.470Z,25.00
2018-08-07T06:59:43.169Z,25.10
2018-08-07T07:02:10.756Z,25.20
2018-08-07T07:04:38.320Z,25.40
2018-08-07T07:07:06.408Z,25.50
2018-08-07T07:09:34.058Z,25.60
2018-08-07T07:12:01.684Z,25.70
2018-08-07T07:14:29.245Z,25.80
2018-08-07T07:16:56.868Z,26.00
2018-08-07T07:19:24.461Z,26.20
2018-08-07T07:21:52.117Z,26.30
2018-08-07T07:24:19.836Z,26.40
2018-08-07T07:26:47.508Z,26.50
2018-08-07T07:29:16.343Z,26.50
2018-08-07T07:31:43.961Z,26.60
2018-08-07T07:34:11.650Z,26.70
2018-08-07T07:36:39.197Z,26.90
2018-08-07T07:41:40.382Z,27.10
2018-08-07T07:44:08.052Z,27.30
2018-08-07T07:46:35.655Z,27.50
2018-08-07T07:49:03.273Z,27.60
2018-08-07T07:51:31.177Z,27.80
2018-08-07T07:53:59.190Z,27.90
2018-08-07T07:56:26.788Z,28.00
2018-08-07T07:58:54.353Z,28.00
2018-08-07T08:01:21.940Z,28.20
2018-08-07T08:06:17.551Z,28.50
2018-08-07T08:08:45.293Z,28.60
2018-08-07T08:11:13.066Z,28.70
2018-08-07T08:13:40.524Z,28.70
2018-08-07T08:16:08.188Z,28.90
2018-08-07T08:18:36.057Z,29.00
2018-08-07T08:21:03.674Z,29.10
2018-08-07T08:25:58.794Z,29.40
2018-08-07T08:28:26.368Z,29.50
2018-08-07T08:30:53.921Z,29.70
2018-08-07T08:33:21.589Z,29.70
2018-08-07T08:35:49.263Z,29.80
2018-08-07T08:38:16.865Z,30.00
2018-08-07T08:40:44.547Z,30.30
2018-08-07T08:43:12.201Z,30.40
2018-08-07T08:45:39.816Z,30.40
2018-08-07T08:48:07.794Z,30.50
2018-08-07T08:50:35.371Z,30.70
2018-08-07T08:53:03.036Z,31.00
2018-08-07T08:55:30.590Z,31.00
2018-08-07T08:57:58.236Z,31.10
2018-08-07T09:00:28.381Z,31.10
2018-08-07T09:02:57.729Z,31.20
2018-08-07T09:05:25.390Z,31.40
2018-08-07T09:07:53.053Z,31.50
2018-08-07T09:10:22.927Z,31.70
2018-08-07T09:12:51.134Z,31.70
2018-08-07T09:15:18.913Z,31.70
2018-08-07T09:17:46.709Z,31.90
2018-08-07T09:20:17.621Z,31.90
2018-08-07T09:22:45.216Z,31.90
2018-08-07T09:25:12.952Z,32.00
2018-08-07T09:27:41.329Z,32.10
2018-08-07T09:30:14.282Z,32.20
2018-08-07T09:32:41.901Z,32.30
2018-08-07T09:35:10.697Z,32.40
2018-08-07T09:37:38.990Z,32.50
2018-08-07T09:40:09.063Z,32.60
2018-08-07T09:42:36.749Z,32.70
2018-08-07T09:45:05.414Z,32.80
2018-08-07T09:47:33.025Z,32.90
2018-08-07T09:50:00.951Z,33.00
2018-08-07T09:52:28.580Z,33.10
2018-08-07T09:54:56.125Z,33.00
2018-08-07T09:57:23.698Z,33.20
2018-08-07T09:59:51.258Z,33.30
2018-08-07T10:02:24.633Z,33.30
2018-08-07T10:04:52.212Z,33.30
2018-08-07T10:07:19.901Z,33.20
2018-08-07T10:09:47.558Z,33.30
2018-08-07T10:12:15.200Z,33.30
2018-08-07T10:14:43.613Z,33.30
2018-08-07T10:17:11.598Z,33.50
2018-08-07T10:19:39.189Z,33.70
2018-08-07T10:22:06.996Z,33.80
2018-08-07T10:24:35.156Z,33.90
2018-08-07T10:27:02.801Z,33.90
2018-08-07T10:29:30.386Z,34.00
2018-08-07T10:31:57.945Z,34.00
2018-08-07T10:34:25.532Z,34.10
2018-08-07T10:36:53.193Z,34.00
2018-08-07T10:39:21.417Z,33.90
2018-08-07T10:41:48.989Z,33.80
2018-08-07T10:44:17.093Z,33.90
2018-08-07T10:46:44.612Z,34.10
2018-08-07T10:49:12.361Z,34.20
2018-08-07T10:51:39.953Z,34.40
2018-08-07T10:54:07.789Z,34.30
2018-08-07T10:56:35.442Z,34.30
2018-08-07T10:59:03.102Z,34.10
2018-08-07T11:01:30.776Z,34.20
2018-08-07T11:03:58.493Z,34.40
2018-08-07T11:06:26.045Z,34.50
2018-08-07T11:08:54.393Z,34.50
2018-08-07T11:11:22.785Z,34.40
2018-08-07T11:13:50.435Z,34.60
2018-08-07T11:16:17.952Z,34.70
2018-08-07T11:18:45.712Z,34.70
2018-08-07T11:21:13.820Z,34.90
2018-08-07T11:23:41.415Z,34.80
2018-08-07T11:26:09.066Z,34.70
2018-08-07T11:28:37.189Z,34.80
2018-08-07T11:31:05.369Z,35.20
2018-08-07T11:33:33.462Z,35.20
2018-08-07T11:36:01.083Z,35.10
2018-08-07T11:38:28.725Z,34.90
2018-08-07T11:40:56.398Z,34.80
2018-08-07T11:43:24.457Z,34.90
2018-08-07T11:45:52.057Z,35.00
2018-08-07T11:48:19.918Z,35.30
2018-08-07T11:50:47.521Z,35.40
2018-08-07T11:53:15.089Z,35.50
2018-08-07T11:55:42.818Z,35.60
2018-08-07T11:58:10.882Z,35.60
2018-08-07T12:00:39.136Z,35.60
2018-08-07T12:03:09.600Z,35.70
2018-08-07T12:05:37.177Z,35.60
2018-08-07T12:08:05.526Z,35.70
2018-08-07T12:10:33.089Z,35.70
2018-08-07T12:13:00.681Z,35.60
2018-08-07T12:15:28.313Z,35.80
2018-08-07T12:17:56.124Z,36.00
2018-08-07T12:20:23.713Z,36.20
2018-08-07T12:22:51.309Z,36.40
2018-08-07T12:25:19.598Z,36.40
2018-08-07T12:27:47.253Z,36.50
2018-08-07T12:30:17.354Z,36.50
2018-08-07T12:32:45.201Z,36.60
2018-08-07T12:35:13.068Z,36.80
2018-08-07T12:37:40.674Z,37.00
2018-08-07T12:40:11.501Z,36.80
2018-08-07T12:42:39.145Z,36.90
2018-08-07T12:45:07.536Z,36.90
2018-08-07T12:47:35.964Z,37.00
2018-08-07T12:50:05.125Z,36.90
2018-08-07T12:52:32.696Z,37.10
2018-08-07T12:55:00.306Z,37.00
2018-08-07T12:57:28.007Z,37.00
2018-08-07T12:59:55.652Z,37.20
2018-08-07T13:02:24.777Z,37.40
2018-08-07T13:04:53.205Z,37.70
2018-08-07T13:07:20.789Z,37.60
2018-08-07T13:09:48.376Z,38.00
2018-08-07T13:12:16.057Z,37.90
2018-08-07T13:14:43.741Z,37.70
2018-08-07T13:17:11.380Z,38.00
2018-08-07T13:19:38.963Z,38.50
2018-08-07T13:22:06.613Z,38.40
2018-08-07T13:24:34.210Z,38.50
2018-08-07T13:27:01.929Z,38.50
2018-08-07T13:29:29.501Z,38.80
2018-08-07T13:31:57.117Z,39.50
2018-08-07T13:34:24.689Z,39.30
2018-08-07T13:36:52.282Z,39.00
2018-08-07T13:39:19.898Z,39.20
2018-08-07T13:41:48.253Z,39.50
2018-08-07T13:44:15.816Z,40.00
2018-08-07T13:46:43.455Z,40.20
2018-08-07T13:49:11.032Z,40.10
2018-08-07T13:54:06.177Z,40.80
2018-08-07T13:56:33.773Z,41.30
2018-08-07T13:59:01.396Z,42.90
2018-08-07T14:03:57.317Z,43.30
2018-08-07T14:06:24.914Z,43.80
2018-08-07T14:08:52.468Z,44.90
2018-08-07T14:11:20.073Z,46.10
2018-08-07T14:13:48.314Z,46.70
2018-08-07T14:16:16.037Z,46.80
2018-08-07T14:18:43.627Z,46.50
2018-08-07T14:21:11.209Z,45.60
2018-08-07T14:23:38.924Z,45.70
2018-08-07T14:26:06.709Z,46.00
2018-08-07T14:28:34.397Z,45.90
2018-08-07T14:31:02.200Z,46.00
2018-08-07T14:33:29.882Z,45.60
2018-08-07T14:35:57.612Z,46.30
2018-08-07T14:38:25.345Z,46.70
2018-08-07T14:40:52.997Z,46.60
2018-08-07T14:43:20.922Z,46.70
2018-08-07T14:45:48.500Z,47.30
2018-08-07T14:48:16.115Z,48.50
2018-08-07T14:50:43.734Z,47.80
2018-08-07T14:53:11.363Z,47.10
2018-08-07T14:55:38.965Z,46.80
2018-08-07T14:58:06.582Z,46.90
2018-08-07T15:00:34.414Z,47.60
2018-08-07T15:03:02.038Z,47.90
2018-08-07T15:05:29.613Z,48.70
2018-08-07T15:07:57.333Z,49.10
2018-08-07T15:10:26.037Z,49.40
2018-08-07T15:12:53.677Z,49.20
2018-08-07T15:15:25.095Z,48.80
2018-08-07T15:17:52.737Z,48.40
2018-08-07T15:20:21.928Z,47.60
2018-08-07T15:22:50.445Z,47.50
2018-08-07T15:25:19.321Z,47.80
2018-08-07T15:27:47.601Z,48.40
2018-08-07T15:30:17.505Z,48.40
2018-08-07T15:32:45.833Z,48.50
2018-08-07T15:35:14.541Z,48.10
2018-08-07T15:37:42.305Z,48.80
2018-08-07T15:40:10.314Z,48.20
2018-08-07T15:42:38.085Z,47.60
2018-08-07T15:45:06.364Z,47.90
2018-08-07T15:47:34.050Z,47.50
2018-08-07T15:50:01.629Z,48.30
2018-08-07T15:52:29.225Z,48.50
2018-08-07T15:54:56.806Z,48.60
2018-08-07T15:57:24.405Z,47.30
2018-08-07T15:59:52.153Z,46.20
2018-08-07T16:02:19.821Z,46.80
2018-08-07T16:04:47.412Z,46.80
2018-08-07T16:07:14.969Z,46.80
2018-08-07T16:09:42.553Z,46.80
2018-08-07T16:12:10.285Z,46.50
2018-08-07T16:14:37.862Z,45.90
2018-08-07T16:17:06.266Z,45.30
2018-08-07T16:19:33.862Z,45.20
2018-08-07T16:22:01.509Z,45.70
2018-08-07T16:24:29.265Z,46.40
2018-08-07T16:26:56.888Z,46.10
2018-08-07T16:29:24.533Z,45.00
2018-08-07T16:31:52.294Z,44.80
2018-08-07T16:34:19.877Z,43.70
2018-08-07T16:36:47.532Z,42.90
2018-08-07T16:39:15.159Z,42.50
2018-08-07T16:41:42.843Z,42.30
2018-08-07T16:44:10.501Z,42.10
2018-08-07T16:46:38.373Z,42.50
2018-08-07T16:49:05.966Z,42.90
2018-08-07T16:51:33.630Z,42.60
2018-08-07T16:54:01.249Z,42.30
2018-08-07T16:56:28.841Z,41.90
2018-08-07T16:58:56.429Z,42.00
2018-08-07T17:01:24.018Z,41.40
2018-08-07T17:03:51.629Z,41.50
2018-08-07T17:06:19.186Z,42.00
2018-08-07T17:08:46.809Z,42.60
2018-08-07T17:11:14.429Z,42.30
2018-08-07T17:13:42.725Z,42.90
2018-08-07T17:16:10.282Z,43.50
2018-08-07T17:18:38.046Z,43.70
2018-08-07T17:21:05.797Z,44.00
2018-08-07T17:23:33.369Z,43.70
2018-08-07T17:26:00.965Z,42.90
2018-08-07T17:28:28.816Z,42.00
2018-08-07T17:30:56.420Z,40.40
2018-08-07T17:33:24.085Z,39.20
2018-08-07T17:35:51.641Z,38.30
2018-08-07T17:38:19.213Z,37.60
2018-08-07T17:40:46.869Z,37.20
2018-08-07T17:43:47.396Z,36.90
2018-08-07T17:46:16.720Z,36.80
2018-08-07T17:48:44.340Z,36.50
2018-08-07T17:51:11.908Z,36.50
2018-08-07T17:53:39.520Z,36.40
2018-08-07T17:56:07.137Z,36.30
2018-08-07T17:58:34.708Z,36.20
2018-08-07T18:01:02.369Z,36.20
2018-08-07T18:03:29.968Z,36.10
2018-08-07T18:05:57.560Z,36.00
2018-08-07T18:08:25.114Z,35.90
2018-08-07T18:10:52.759Z,36.00
2018-08-07T18:13:20.322Z,36.00
2018-08-07T18:15:47.902Z,35.70
2018-08-07T18:18:15.457Z,35.60
2018-08-07T18:20:43.258Z,35.30
2018-08-07T18:23:10.849Z,35.10
2018-08-07T18:25:38.450Z,34.90
2018-08-07T18:28:06.086Z,34.70
2018-08-07T18:30:34.197Z,34.50
2018-08-07T18:33:01.788Z,34.30
2018-08-07T18:35:29.438Z,33.90
2018-08-07T18:37:57.165Z,33.80
2018-08-07T18:40:24.843Z,33.60
2018-08-07T18:42:52.508Z,33.50
2018-08-07T18:45:20.213Z,33.30
2018-08-07T18:47:47.822Z,33.10
2018-08-07T18:50:18.397Z,32.90
2018-08-07T18:53:16.730Z,32.90
2018-08-07T18:55:44.313Z,32.70
2018-08-07T18:58:11.876Z,32.40
2018-08-07T19:00:39.476Z,32.20
2018-08-07T19:03:07.112Z,32.00
2018-08-07T19:05:34.678Z,31.90
2018-08-07T19:08:02.365Z,31.70
2018-08-07T19:10:29.955Z,31.60
2018-08-07T19:12:57.584Z,31.40
2018-08-07T19:15:25.161Z,31.40
2018-08-07T19:17:52.761Z,31.20
2018-08-07T19:20:21.501Z,31.10
2018-08-07T19:22:49.146Z,31.00
2018-08-07T19:25:16.832Z,30.90
2018-08-07T19:27:44.448Z,30.80
2018-08-07T19:30:13.680Z,30.80
2018-08-07T19:32:41.597Z,30.80
2018-08-07T19:35:12.393Z,30.80
2018-08-07T19:37:40.070Z,30.70
2018-08-07T19:40:09.478Z,30.50
2018-08-07T19:42:37.116Z,30.40
2018-08-07T19:45:06.653Z,30.30
2018-08-07T19:47:34.249Z,30.20
2018-08-07T19:50:01.878Z,30.10
2018-08-07T19:52:29.500Z,30.00
2018-08-07T19:54:57.065Z,30.00
2018-08-07T19:57:27.454Z,29.80
2018-08-07T19:59:58.458Z,29.90
2018-08-07T20:02:26.549Z,29.80
2018-08-07T20:04:54.215Z,29.70
2018-08-07T20:07:23.392Z,29.70
2018-08-07T20:09:58.753Z,29.60
2018-08-07T20:12:27.825Z,29.60
2018-08-07T20:14:55.433Z,29.50
2018-08-07T20:17:23.053Z,29.40
2018-08-07T20:19:50.576Z,29.30
2018-08-07T20:22:18.217Z,29.30
2018-08-07T20:24:45.980Z,29.20
2018-08-07T20:27:13.590Z,29.20
2018-08-07T20:29:41.121Z,29.20
2018-08-07T20:32:09.758Z,29.20
2018-08-07T20:34:37.365Z,29.10
2018-08-07T20:37:05.037Z,29.10
2018-08-07T20:39:32.600Z,29.10
2018-08-07T20:42:00.217Z,29.10
2018-08-07T20:44:27.768Z,29.00
2018-08-07T20:46:55.597Z,28.90
2018-08-07T20:49:23.137Z,28.70
2018-08-07T20:51:50.781Z,28.70
2018-08-07T20:54:18.438Z,28.60
2018-08-07T20:56:46.045Z,28.50
2018-08-07T20:59:13.608Z,28.50
2018-08-07T21:01:41.235Z,28.50
2018-08-07T21:04:08.805Z,28.40
2018-08-07T21:06:36.401Z,28.40
2018-08-07T21:09:06.086Z,28.50
2018-08-07T21:11:36.220Z,28.50
2018-08-07T21:14:04.169Z,28.50
2018-08-07T21:16:32.218Z,28.40
2018-08-07T21:18:59.850Z,28.40
2018-08-07T21:21:27.452Z,28.40
2018-08-07T21:23:55.026Z,28.30
2018-08-07T21:26:22.690Z,28.10
2018-08-07T21:28:50.473Z,27.90
2018-08-07T21:31:18.110Z,27.90
2018-08-07T21:33:45.689Z,27.90
2018-08-07T21:36:13.336Z,28.00
2018-08-07T21:38:40.897Z,28.00
2018-08-07T21:41:08.469Z,28.00
2018-08-07T21:43:36.046Z,27.90
2018-08-07T21:46:03.685Z,27.90
2018-08-07T21:48:31.329Z,27.90
2018-08-07T21:50:58.930Z,28.00
2018-08-07T21:53:26.537Z,28.00
2018-08-07T21:55:54.173Z,28.00
2018-08-07T21:58:21.748Z,28.00
2018-08-07T22:00:50.342Z,28.00
2018-08-07T22:03:18.155Z,28.00
2018-08-07T22:05:46.398Z,27.90
2018-08-07T22:08:14.501Z,27.90
2018-08-07T22:10:42.196Z,27.90
2018-08-07T22:13:10.759Z,27.80
2018-08-07T22:15:38.689Z,27.80
2018-08-07T22:18:07.580Z,27.70
2018-08-07T22:20:35.198Z,27.70
2018-08-07T22:23:02.912Z,27.60
2018-08-07T22:25:30.496Z,27.60
2018-08-07T22:27:58.136Z,27.60
2018-08-07T22:30:25.712Z,27.50
2018-08-07T22:32:53.333Z,27.50
2018-08-07T22:35:20.928Z,27.40
2018-08-07T22:37:49.245Z,27.40
2018-08-07T22:40:16.880Z,27.40
2018-08-07T22:42:45.029Z,27.30
2018-08-07T22:45:14.161Z,27.20
2018-08-07T22:47:42.117Z,27.10
2018-08-07T22:50:10.796Z,27.10
2018-08-07T22:52:38.525Z,27.10
2018-08-07T22:55:07.924Z,27.10
2018-08-07T22:57:35.668Z,27.10
2018-08-07T23:00:07.323Z,27.10
2018-08-07T23:02:34.948Z,27.20
2018-08-07T23:05:02.553Z,27.10
2018-08-07T23:07:30.285Z,27.00
2018-08-07T23:09:57.858Z,26.90
2018-08-07T23:12:25.442Z,26.80
2018-08-07T23:14:53.017Z,26.70
2018-08-07T23:17:20.586Z,26.60
2018-08-07T23:19:48.236Z,26.50
2018-08-07T23:22:15.805Z,26.60
2018-08-07T23:24:43.373Z,26.50
2018-08-07T23:27:10.969Z,26.50
2018-08-07T23:29:38.801Z,26.50
2018-08-07T23:32:06.809Z,26.50
2018-08-07T23:34:34.422Z,26.50
2018-08-07T23:37:01.981Z,26.40
2018-08-07T23:39:29.560Z,26.40
2018-08-07T23:41:57.153Z,26.30
2018-08-07T23:44:24.714Z,26.30
2018-08-07T23:46:52.529Z,26.20
2018-08-07T23:49:20.098Z,26.10
2018-08-07T23:51:47.909Z,26.10
2018-08-07T23:54:15.517Z,26.10
2018-08-07T23:56:43.124Z,26.00
2018-08-07T23:59:10.690Z,26.00
